Time;durP1;ratioP1;P1;durP2;ratioP2;P2;SDS_P1;SDS_P2;PMS_P1;PMS_P2;Temp;Humidity;BMP_temperature;BMP_pressure;BME280_temperature;BME280_humidity;BME280_pressure;Samples;Min_cycle;Max_cycle;Signal;HPM_P1;HPM_P2
2023/01/07 00:01:08;;;;;;;43.60;30.92;;;;;;;5.43;100.00;100010.69;5053274;28;20043;-76
2023/01/07 00:03:34;;;;;;;47.95;32.35;;;;;;;5.46;100.00;100013.22;5053604;28;20032;-75
2023/01/07 00:06:11;;;;;;;40.03;27.58;;;;;;;5.51;100.00;100017.41;5053189;28;20053;-76
2023/01/07 00:08:44;;;;;;;46.90;31.33;;;;;;;5.33;100.00;100004.03;5053572;28;20025;-76
2023/01/07 00:11:11;;;;;;;47.45;32.22;;;;;;;5.31;100.00;100023.84;5053053;28;20055;-76
2023/01/07 00:13:37;;;;;;;53.78;39.40;;;;;;;5.21;100.00;100013.69;5053712;28;20028;-76
2023/01/07 00:16:05;;;;;;;52.90;36.97;;;;;;;5.11;100.00;100012.19;5053069;28;20602;-76
2023/01/07 00:18:30;;;;;;;53.80;38.85;;;;;;;5.09;100.00;100013.94;5053212;28;20476;-76
2023/01/07 00:21:03;;;;;;;35.85;27.05;;;;;;;5.04;100.00;100025.22;5052879;28;20048;-76
2023/01/07 00:23:30;;;;;;;30.13;22.45;;;;;;;4.89;100.00;100013.47;5053281;28;20086;-75
2023/01/07 00:26:01;;;;;;;32.05;23.73;;;;;;;4.87;100.00;100028.94;5052805;28;20075;-75
2023/01/07 00:28:26;;;;;;;;;;;;;;;4.83;100.00;100034.19;5053467;28;20029;-75
2023/01/07 00:30:51;;;;;;;32.65;23.10;;;;;;;4.68;100.00;100017.25;5053084;28;20336;-76
2023/01/07 00:33:18;;;;;;;29.90;23.58;;;;;;;4.56;100.00;100001.97;5052918;28;20131;-76
2023/01/07 00:35:46;;;;;;;29.55;23.75;;;;;;;4.63;100.00;100037.09;5053010;28;20035;-75
2023/01/07 00:38:11;;;;;;;23.58;20.00;;;;;;;4.52;100.00;100021.81;5052721;28;20020;-76
2023/01/07 00:40:37;;;;;;;24.13;19.55;;;;;;;4.59;100.00;100033.72;5052943;28;20028;-76
2023/01/07 00:43:06;;;;;;;23.25;19.88;;;;;;;4.54;100.00;100022.63;5052500;28;20656;-76
2023/01/07 00:45:34;;;;;;;22.75;19.05;;;;;;;4.58;100.00;100032.00;5052683;28;20021;-76
2023/01/07 00:48:00;;;;;;;23.92;18.95;;;;;;;4.51;100.00;100027.84;5052184;28;20029;-76
2023/01/07 00:50:29;;;;;;;26.83;19.77;;;;;;;4.61;100.00;100031.97;5052711;28;20104;-76
2023/01/07 00:52:55;;;;;;;22.95;18.23;;;;;;;4.70;100.00;100039.56;5052690;28;20028;-75
2023/01/07 00:55:21;;;;;;;28.17;18.38;;;;;;;4.75;100.00;100040.31;5052638;28;20025;-76
2023/01/07 00:57:47;;;;;;;25.35;18.42;;;;;;;4.74;100.00;100027.47;5052324;28;20096;-76
2023/01/07 01:00:14;;;;;;;23.80;19.17;;;;;;;4.86;100.00;100047.91;5052137;28;20021;-76
2023/01/07 01:02:40;;;;;;;28.80;19.98;;;;;;;4.91;100.00;100040.06;5052572;28;20040;-76
2023/01/07 01:05:06;;;;;;;25.00;18.25;;;;;;;4.89;100.00;100023.78;5052284;28;20017;-76
2023/01/07 01:07:32;;;;;;;26.55;18.85;;;;;;;4.92;100.00;100024.56;5051824;28;20103;-76
2023/01/07 01:09:58;;;;;;;30.67;20.88;;;;;;;5.01;100.00;100031.28;5052102;28;20020;-75
2023/01/07 01:12:23;;;;;;;31.23;23.45;;;;;;;4.96;100.00;100027.94;5052388;28;20025;-76
2023/01/07 01:14:48;;;;;;;32.08;24.15;;;;;;;5.02;100.00;100039.91;5052317;28;20066;-75
2023/01/07 01:17:14;;;;;;;36.78;26.58;;;;;;;5.00;100.00;100037.34;5051840;28;20035;-76
2023/01/07 01:19:39;;;;;;;33.03;23.45;;;;;;;4.96;100.00;100033.09;5052276;28;20025;-76
2023/01/07 01:22:04;;;;;;;29.85;21.63;;;;;;;4.90;100.00;100026.31;5052032;28;20063;-76
2023/01/07 01:24:30;;;;;;;31.25;21.10;;;;;;;4.93;100.00;100038.31;5052181;28;20043;-76
2023/01/07 01:26:55;;;;;;;29.77;21.58;;;;;;;4.81;100.00;100016.16;5051857;28;20024;-76
2023/01/07 01:29:21;;;;;;;27.52;21.80;;;;;;;4.81;100.00;100012.75;5052048;28;20140;-75
2023/01/07 01:31:47;;;;;;;28.20;20.98;;;;;;;4.97;100.00;100033.09;5051933;28;20094;-75
2023/01/07 01:34:12;;;;;;;28.10;21.38;;;;;;;4.94;100.00;100030.56;5051905;28;20542;-76
2023/01/07 01:36:38;;;;;;;25.98;19.48;;;;;;;4.97;100.00;100030.50;5051880;28;20175;-76
2023/01/07 01:39:03;;;;;;;26.08;18.95;;;;;;;4.98;100.00;100036.53;5051770;28;20021;-76
2023/01/07 01:41:30;;;;;;;23.92;17.90;;;;;;;4.99;100.00;100026.16;5051814;28;20523;-76
2023/01/07 01:43:55;;;;;;;20.83;17.20;;;;;;;4.98;100.00;100024.47;5051910;28;20066;-76
2023/01/07 01:46:23;;;;;;;21.90;17.50;;;;;;;5.04;100.00;100040.72;5051814;28;20103;-76
2023/01/07 01:48:56;;;;;;;25.35;17.02;;;;;;;5.02;100.00;100032.16;5051969;28;20021;-75
2023/01/07 01:51:24;;;;;;;23.48;16.92;;;;;;;4.97;100.00;100038.25;5051697;28;20028;-76
2023/01/07 01:53:51;;;;;;;22.67;16.17;;;;;;;4.89;100.00;100031.53;5051960;28;20024;-76
2023/01/07 01:56:21;;;;;;;22.92;16.70;;;;;;;4.81;100.00;100023.91;5051478;28;20071;-76
2023/01/07 01:58:59;;;;;;;24.55;16.17;;;;;;;4.77;100.00;100024.00;5051525;28;20032;-76
2023/01/07 02:01:25;;;;;;;19.77;15.57;;;;;;;4.75;100.00;100027.41;5051891;28;20020;-76
2023/01/07 02:03:51;;;;;;;22.02;16.05;;;;;;;4.81;100.00;100031.66;5051818;28;20017;-76
2023/01/07 02:06:25;;;;;;;20.45;15.43;;;;;;;4.78;100.00;100029.13;5051491;28;20036;-76
2023/01/07 02:08:51;;;;;;;21.98;14.48;;;;;;;4.74;100.00;100023.16;5051613;28;20019;-76
2023/01/07 02:11:31;;;;;;;23.35;15.90;;;;;;;4.77;100.00;100031.72;5051247;28;20025;-76
2023/01/07 02:14:07;;;;;;;20.00;14.60;;;;;;;4.73;100.00;100023.19;5051547;28;20021;-76
2023/01/07 02:16:37;;;;;;;19.70;14.23;;;;;;;4.71;100.00;100019.75;5051530;28;20029;-76
2023/01/07 02:19:51;;;;;;;20.53;14.33;;;;;;;4.83;100.00;100022.13;5054672;28;20021;-76
2023/01/07 02:22:47;;;;;;;16.00;12.45;;;;;;;4.87;100.00;100017.78;5055784;28;20652;-76
2023/01/07 02:25:40;;;;;;;15.70;11.65;;;;;;;4.90;100.00;100013.41;5055304;28;20029;-76
2023/01/07 02:28:38;;;;;;;17.88;12.38;;;;;;;4.91;100.00;100015.13;5055473;28;20108;-75
2023/01/07 02:31:20;;;;;;;17.02;12.55;;;;;;;4.86;100.00;100010.91;5055103;28;20035;-75
2023/01/07 02:33:56;;;;;;;18.35;11.93;;;;;;;4.77;100.00;100001.63;5055265;28;20017;-76
2023/01/07 02:36:43;;;;;;;18.17;13.43;;;;;;;4.80;100.00;100016.19;5055011;28;20027;-76
2023/01/07 02:39:36;;;;;;;17.27;12.98;;;;;;;4.77;100.00;100008.50;5055053;28;20177;-76
2023/01/07 02:42:20;;;;;;;19.17;12.93;;;;;;;4.71;100.00;100002.53;5054944;28;20052;-76
2023/01/07 02:45:00;;;;;;;16.48;12.57;;;;;;;4.74;100.00;100009.41;5055303;28;20108;-75
2023/01/07 02:47:35;;;;;;;19.40;12.82;;;;;;;4.63;100.00;100003.56;5055118;28;20091;-75
2023/01/07 02:50:00;;;;;;;18.40;12.40;;;;;;;4.67;100.00;100007.78;5054887;28;20033;-76
2023/01/07 02:52:29;;;;;;;14.80;12.13;;;;;;;4.61;100.00;100008.75;5054792;28;20029;-76
2023/01/07 02:55:04;;;;;;;18.00;11.38;;;;;;;4.54;100.00;100009.72;5054597;28;20028;-75
2023/01/07 02:58:13;;;;;;;17.30;12.65;;;;;;;4.38;100.00;99993.66;5054682;28;20119;-76
2023/01/07 03:01:00;;;;;;;17.10;12.27;;;;;;;4.41;100.00;100000.47;5054782;28;20028;-76
2023/01/07 03:04:24;;;;;;;19.45;12.23;;;;;;;4.35;100.00;100003.16;5054870;28;20029;-76
2023/01/07 03:07:31;;;;;;;16.27;12.32;;;;;;;4.27;100.00;99998.13;5032358;28;20025;-75
2023/01/07 03:10:13;;;;;;;17.00;12.35;;;;;;;4.21;100.00;99993.03;5015521;28;20017;-76
2023/01/07 03:12:48;;;;;;;20.45;13.15;;;;;;;4.05;100.00;99982.13;5032263;28;20053;-75
2023/01/07 03:15:58;;;;;;;16.35;11.55;;;;;;;4.07;100.00;99998.41;5031939;28;20029;-75
2023/01/07 03:18:28;;;;;;;18.58;12.50;;;;;;;3.94;100.00;99982.28;4953743;29;20035;-76
2023/01/07 03:21:00;;;;;;;23.73;13.68;;;;;;;3.99;100.00;100000.25;4953952;29;20527;-76
2023/01/07 03:23:28;;;;;;;21.85;14.18;;;;;;;3.88;100.00;99992.69;4953829;29;20050;-76
2023/01/07 03:25:55;;;;;;;27.05;16.23;;;;;;;3.88;100.00;100005.56;4953781;29;20035;-75
2023/01/07 03:28:26;;;;;;;27.08;15.98;;;;;;;3.77;100.00;100001.44;4953540;29;20034;-76
2023/01/07 03:30:55;;;;;;;21.13;13.57;;;;;;;3.75;100.00;100006.59;4953161;28;20047;-76
2023/01/07 03:33:26;;;;;;;20.67;14.93;;;;;;;3.70;100.00;100005.78;4953359;29;20114;-76
2023/01/07 03:35:55;;;;;;;24.27;16.25;;;;;;;3.61;100.00;100003.34;4953659;29;20075;-75
2023/01/07 03:38:22;;;;;;;24.02;16.27;;;;;;;3.60;100.00;100002.50;4990284;28;20047;-76
2023/01/07 03:40:48;;;;;;;16.33;12.55;;;;;;;3.59;100.00;100005.09;4992422;28;20466;-76
2023/01/07 03:43:17;;;;;;;24.63;15.38;;;;;;;3.50;100.00;99990.63;4991937;28;20100;-76
2023/01/07 03:45:42;;;;;;;20.60;14.18;;;;;;;3.38;100.00;99983.03;4992372;28;20030;-76
2023/01/07 03:48:08;;;;;;;21.05;14.57;;;;;;;3.47;100.00;100012.09;4975630;28;20085;-76
2023/01/07 03:50:33;;;;;;;20.27;14.05;;;;;;;3.38;100.00;99999.34;4991960;28;20027;-76
2023/01/07 03:52:58;;;;;;;21.38;14.45;;;;;;;3.41;100.00;100006.16;4992101;28;20418;-76
2023/01/07 03:55:24;;;;;;;21.73;14.50;;;;;;;3.34;100.00;100001.97;5032015;28;20043;-76
2023/01/07 03:57:49;;;;;;;19.67;13.75;;;;;;;3.35;100.00;100007.09;5053836;28;20107;-75
2023/01/07 04:00:15;;;;;;;18.90;14.35;;;;;;;3.32;100.00;100009.69;5053506;28;20036;-76
2023/01/07 04:02:42;;;;;;;16.85;12.35;;;;;;;3.18;100.00;99991.81;5053797;28;20060;-76
2023/01/07 04:05:08;;;;;;;17.13;11.75;;;;;;;3.23;100.00;100005.50;5053647;28;20036;-76
2023/01/07 04:07:34;;;;;;;20.77;12.98;;;;;;;3.19;100.00;100003.81;5053481;28;20029;-76
2023/01/07 04:09:59;;;;;;;16.80;12.30;;;;;;;3.17;100.00;100002.16;5053623;28;20043;-76
2023/01/07 04:12:24;;;;;;;16.63;12.07;;;;;;;3.17;100.00;100007.31;5053231;28;20032;-76
2023/01/07 04:14:50;;;;;;;18.40;12.88;;;;;;;3.16;100.00;100008.16;5053552;28;20472;-76
2023/01/07 04:17:15;;;;;;;17.15;12.70;;;;;;;3.15;100.00;100009.03;5053003;28;20080;-76
2023/01/07 04:19:40;;;;;;;17.85;12.73;;;;;;;3.07;100.00;99993.66;5053221;28;20533;-76
2023/01/07 04:22:09;;;;;;;19.23;12.25;;;;;;;3.03;100.00;99983.41;5052899;28;20095;-76
2023/01/07 04:24:34;;;;;;;17.95;12.27;;;;;;;2.96;100.00;99967.22;5053354;28;20044;-76
2023/01/07 04:26:59;;;;;;;21.85;13.63;;;;;;;3.09;100.00;99978.22;5053030;28;20034;-76
2023/01/07 04:29:25;;;;;;;21.33;14.38;;;;;;;3.10;100.00;99992.78;5052975;28;20021;-76
2023/01/07 04:31:50;;;;;;;18.52;12.98;;;;;;;3.11;100.00;99995.31;5051866;28;20025;-76
2023/01/07 04:34:16;;;;;;;19.90;13.20;;;;;;;3.15;100.00;99996.16;5052828;28;20044;-76
2023/01/07 04:36:41;;;;;;;21.90;13.18;;;;;;;3.08;100.00;99990.25;5052839;28;20028;-76
2023/01/07 04:39:06;;;;;;;28.17;13.93;;;;;;;3.09;100.00;99980.78;5052653;28;20068;-76
2023/01/07 04:41:31;;;;;;;31.17;14.80;;;;;;;3.16;100.00;99995.28;5051840;28;20037;-76
2023/01/07 04:43:57;;;;;;;27.30;13.95;;;;;;;3.19;100.00;100003.81;5053216;28;20017;-76
2023/01/07 04:46:24;;;;;;;38.10;17.17;;;;;;;3.12;100.00;99985.88;5052893;28;20041;-76
2023/01/07 04:48:49;;;;;;;30.63;15.55;;;;;;;3.12;100.00;99984.19;5052796;28;20453;-76
2023/01/07 04:51:14;;;;;;;33.75;16.60;;;;;;;3.10;100.00;99985.06;5052448;28;20032;-75
2023/01/07 04:53:40;;;;;;;26.15;16.20;;;;;;;3.18;100.00;99999.56;5051319;28;20021;-76
2023/01/07 04:56:05;;;;;;;25.23;16.17;;;;;;;3.13;100.00;99988.47;5052527;28;20028;-75
2023/01/07 04:58:31;;;;;;;25.60;16.20;;;;;;;3.24;100.00;100002.06;5052683;28;20021;-76
2023/01/07 05:01:02;;;;;;;31.02;20.17;;;;;;;3.29;100.00;99999.44;5052615;28;20067;-75
2023/01/07 05:03:27;;;;;;;;;;;;;;;3.33;100.00;100002.81;5052628;28;20048;-75
2023/01/07 05:05:52;;;;;;;67.28;27.75;;;;;;;3.37;100.00;99997.63;5052444;28;19913;-76
2023/01/07 05:08:18;;;;;;;86.05;31.83;;;;;;;3.44;100.00;100008.69;5052048;28;20024;-76
2023/01/07 05:10:43;;;;;;;55.10;25.27;;;;;;;3.37;100.00;100002.78;5052417;28;20020;-75
2023/01/07 05:13:15;;;;;;;73.90;29.48;;;;;;;3.49;100.00;99999.19;5052259;28;20028;-75
2023/01/07 05:15:40;;;;;;;109.55;40.95;;;;;;;3.49;100.00;99989.72;5052324;28;20025;-76
2023/01/07 05:18:06;;;;;;;110.05;42.13;;;;;;;3.63;100.00;100004.19;5051932;28;20021;-75
2023/01/07 05:20:31;;;;;;;55.95;30.02;;;;;;;3.68;100.00;99989.53;5052141;28;20096;-75
2023/01/07 05:22:56;;;;;;;44.17;24.40;;;;;;;3.73;100.00;99993.72;5052312;28;20044;-75
2023/01/07 05:25:22;;;;;;;43.40;23.70;;;;;;;3.76;100.00;99995.44;5051811;28;20024;-76
2023/01/07 05:27:47;;;;;;;60.63;27.98;;;;;;;3.78;100.00;99990.25;5051963;28;20029;-75
2023/01/07 05:30:12;;;;;;;69.35;29.67;;;;;;;3.82;100.00;99987.59;5052040;28;20100;-75
2023/01/07 05:32:38;;;;;;;54.17;27.20;;;;;;;3.75;100.00;99980.84;5051990;28;20022;-76
2023/01/07 05:35:03;;;;;;;58.85;27.52;;;;;;;3.82;100.00;99997.06;5052067;28;20017;-76
2023/01/07 05:37:29;;;;;;;66.50;29.80;;;;;;;3.83;100.00;99996.19;5051482;28;20021;-76
2023/01/07 05:39:54;;;;;;;65.63;33.80;;;;;;;3.77;100.00;99973.94;5052111;28;20029;-75
2023/01/07 05:42:19;;;;;;;75.85;38.78;;;;;;;3.90;100.00;99990.94;5051655;28;20051;-76
2023/01/07 05:44:45;;;;;;;78.05;39.88;;;;;;;3.96;100.00;99989.97;5051855;28;20035;-75
2023/01/07 05:47:10;;;;;;;67.15;32.92;;;;;;;4.02;100.00;99986.47;5051711;28;20025;-76
2023/01/07 05:49:36;;;;;;;65.55;33.70;;;;;;;4.07;100.00;99992.41;5051767;28;20104;-76
2023/01/07 05:52:01;;;;;;;65.47;33.25;;;;;;;4.06;100.00;99985.56;5051964;28;20021;-76
2023/01/07 05:54:26;;;;;;;67.20;33.63;;;;;;;4.06;100.00;99980.41;5055886;28;20056;-76
2023/01/07 05:56:52;;;;;;;72.25;35.58;;;;;;;4.07;100.00;99976.94;5055766;28;20016;-76
2023/01/07 05:59:17;;;;;;;66.47;33.22;;;;;;;4.10;100.00;99976.91;5056064;28;20334;-76
2023/01/07 06:01:42;;;;;;;74.30;35.20;;;;;;;4.12;100.00;99982.88;5055911;28;20032;-76
2023/01/07 06:04:08;;;;;;;67.10;35.78;;;;;;;4.15;100.00;99993.16;5054249;28;20070;-76
2023/01/07 06:06:33;;;;;;;59.17;42.85;;;;;;;4.15;100.00;99986.28;5055677;28;20032;-76
2023/01/07 06:08:58;;;;;;;54.22;37.55;;;;;;;4.16;100.00;99987.13;5055766;28;20112;-76
2023/01/07 06:11:24;;;;;;;63.80;36.78;;;;;;;4.11;100.00;99991.50;5055623;28;20109;-75
2023/01/07 06:13:49;;;;;;;82.40;41.33;;;;;;;4.13;100.00;99998.34;5055781;28;20020;-76
2023/01/07 06:16:15;;;;;;;75.25;39.80;;;;;;;4.14;100.00;100001.78;5055214;28;20488;-75
2023/01/07 06:18:40;;;;;;;49.72;29.23;;;;;;;4.16;100.00;100000.84;5055621;28;20067;-76
2023/01/07 06:21:06;;;;;;;40.65;28.20;;;;;;;4.21;100.00;100000.78;5055383;28;20017;-75
2023/01/07 06:23:31;;;;;;;37.90;24.63;;;;;;;4.23;100.00;100007.63;5055451;28;20079;-75
2023/01/07 06:25:57;;;;;;;36.42;22.70;;;;;;;4.29;100.00;100003.25;5055585;28;20024;-76
2023/01/07 06:28:22;;;;;;;45.58;26.92;;;;;;;4.29;100.00;99998.09;5055100;28;20025;-75
2023/01/07 06:30:47;;;;;;;52.97;32.78;;;;;;;4.35;100.00;100006.59;5055398;28;20028;-76
2023/01/07 06:33:14;;;;;;;47.78;30.38;;;;;;;4.33;100.00;100004.91;5055044;28;20028;-76
2023/01/07 06:35:39;;;;;;;42.25;27.35;;;;;;;4.39;100.00;100008.25;5055158;28;20041;-76
2023/01/07 06:38:05;;;;;;;46.63;30.10;;;;;;;4.34;100.00;99996.28;5055227;28;20024;-76
2023/01/07 06:40:30;;;;;;;48.78;30.17;;;;;;;4.44;100.00;100003.88;5055119;28;20104;-76
2023/01/07 06:42:56;;;;;;;41.78;28.05;;;;;;;4.49;100.00;100011.53;5055070;28;20385;-75
2023/01/07 06:45:21;;;;;;;29.00;21.00;;;;;;;4.47;100.00;100001.25;5054894;28;20016;-76
2023/01/07 06:47:49;;;;;;;31.67;22.98;;;;;;;4.58;100.00;100020.84;5055012;28;20029;-76
2023/01/07 06:50:15;;;;;;;37.33;26.17;;;;;;;4.58;100.00;99997.63;5054587;28;20021;-76
2023/01/07 06:52:41;;;;;;;34.10;27.15;;;;;;;4.65;100.00;100014.72;5054863;28;20033;-76
2023/01/07 06:55:06;;;;;;;29.83;21.30;;;;;;;4.66;100.00;100014.69;5054842;28;20029;-76
2023/01/07 06:57:32;;;;;;;25.15;18.83;;;;;;;4.61;100.00;100015.66;5054686;28;20108;-76
2023/01/07 06:59:57;;;;;;;28.38;20.17;;;;;;;4.65;100.00;100020.72;5054581;28;20156;-75
2023/01/07 07:02:25;;;;;;;26.55;20.45;;;;;;;4.63;100.00;100006.13;5054559;28;20383;-76
2023/01/07 07:04:51;;;;;;;34.92;27.52;;;;;;;4.64;100.00;100006.13;5053472;28;20021;-75
2023/01/07 07:07:17;;;;;;;35.70;28.45;;;;;;;4.68;100.00;100010.38;5054569;28;20029;-75
2023/01/07 07:09:42;;;;;;;37.65;30.08;;;;;;;4.74;100.00;100011.97;5054790;28;20021;-76
2023/01/07 07:12:08;;;;;;;30.55;22.50;;;;;;;4.69;100.00;99998.31;5054813;28;20025;-76
2023/01/07 07:14:34;;;;;;;121.15;70.32;;;;;;;4.74;100.00;100007.66;5054378;28;20029;-76
2023/01/07 07:16:59;;;;;;;115.55;78.97;;;;;;;4.69;100.00;99996.56;5054418;28;20033;-76
2023/01/07 07:19:25;;;;;;;79.30;56.78;;;;;;;4.66;100.00;100003.50;5054133;28;20029;-76
2023/01/07 07:21:50;;;;;;;83.85;62.83;;;;;;;4.74;100.00;100011.97;5054555;28;20025;-76
2023/01/07 07:24:16;;;;;;;105.25;79.30;;;;;;;4.82;100.00;100009.28;5054133;28;20444;-76
2023/01/07 07:26:41;;;;;;;96.18;75.30;;;;;;;4.83;100.00;100011.81;5054251;28;20025;-76
2023/01/07 07:29:08;;;;;;;84.05;65.70;;;;;;;4.85;100.00;100006.66;5054491;28;20013;-76
2023/01/07 07:31:33;;;;;;;137.57;91.22;;;;;;;4.90;100.00;100015.16;5053795;28;20028;-76
2023/01/07 07:33:58;;;;;;;157.38;99.22;;;;;;;4.84;100.00;100000.59;5054213;28;20059;-76
2023/01/07 07:36:24;;;;;;;139.07;87.13;;;;;;;4.95;100.00;100011.59;5053868;28;20024;-76
2023/01/07 07:38:49;;;;;;;132.68;77.82;;;;;;;4.99;100.00;100008.09;5053943;28;20100;-76
2023/01/07 07:41:14;;;;;;;93.80;60.30;;;;;;;5.02;100.00;100004.63;5053457;28;20025;-76
2023/01/07 07:43:40;;;;;;;83.60;52.13;;;;;;;5.06;100.00;100008.00;5054054;28;20028;-76
2023/01/07 07:46:05;;;;;;;70.18;46.60;;;;;;;5.02;100.00;99999.44;5053859;28;20029;-76
2023/01/07 07:48:30;;;;;;;73.60;45.90;;;;;;;5.03;100.00;100000.28;5053526;28;20105;-76
2023/01/07 07:50:56;;;;;;;73.65;48.33;;;;;;;5.03;100.00;100008.88;5053574;28;20363;-76
2023/01/07 07:53:21;;;;;;;58.38;40.00;;;;;;;4.96;100.00;100002.13;5053601;28;20353;-76
2023/01/07 07:55:47;;;;;;;58.40;38.80;;;;;;;4.98;100.00;100005.53;5053768;28;20031;-76
2023/01/07 07:58:13;;;;;;;49.45;36.20;;;;;;;4.92;100.00;100008.22;5053588;28;20357;-76
2023/01/07 08:00:38;;;;;;;46.60;34.05;;;;;;;4.85;100.00;99997.16;5053297;28;20047;-76
2023/01/07 08:03:04;;;;;;;41.13;31.48;;;;;;;4.92;100.00;100008.22;5053498;28;20021;-76
2023/01/07 08:05:30;;;;;;;41.78;30.60;;;;;;;4.88;100.00;99994.50;5053519;28;20025;-76
2023/01/07 08:07:56;;;;;;;44.75;32.13;;;;;;;4.94;100.00;100002.16;5053498;28;20033;-75
2023/01/07 08:10:22;;;;;;;61.60;40.50;;;;;;;5.02;100.00;100009.78;5053146;28;20025;-76
2023/01/07 08:12:49;;;;;;;51.42;37.17;;;;;;;5.08;100.00;99998.47;5053298;28;20345;-75
2023/01/07 08:15:15;;;;;;;46.20;33.05;;;;;;;5.18;100.00;100003.44;5053144;28;20100;-76
2023/01/07 08:17:40;;;;;;;43.35;30.20;;;;;;;5.27;100.00;100005.00;5053223;28;20104;-76
2023/01/07 08:20:07;;;;;;;41.08;29.73;;;;;;;5.37;100.00;100013.41;5053435;28;20445;-76
2023/01/07 08:22:33;;;;;;;47.13;34.83;;;;;;;5.32;100.00;99992.00;5052998;28;20469;-75
2023/01/07 08:24:58;;;;;;;53.38;35.45;;;;;;;5.42;100.00;99991.75;5051896;28;20025;-76
2023/01/07 08:27:26;;;;;;;67.25;37.17;;;;;;;5.58;100.00;100000.06;5052895;28;20419;-75
2023/01/07 08:29:51;;;;;;;64.32;38.35;;;;;;;5.74;100.00;100009.19;5053041;28;20024;-76
2023/01/07 08:32:17;;;;;;;73.97;41.60;;;;;;;5.82;100.00;99990.94;5051670;28;20021;-75
2023/01/07 08:34:42;;;;;;;63.42;38.97;;;;;;;5.97;100.00;100013.06;5053054;28;20082;-76
2023/01/07 08:37:07;;;;;;;50.88;33.50;;;;;;;5.93;100.00;99993.31;5052900;28;20021;-76
2023/01/07 08:39:33;;;;;;;46.30;32.63;;;;;;;5.94;100.00;99995.88;5052779;28;20411;-76
2023/01/07 08:41:58;;;;;;;50.75;33.05;;;;;;;5.96;100.00;100003.59;5053043;28;20298;-76
2023/01/07 08:44:23;;;;;;;55.03;35.03;;;;;;;5.94;100.00;100003.66;5052540;28;20025;-76
2023/01/07 08:46:51;;;;;;;74.25;45.63;;;;;;;5.99;100.00;100009.56;5052752;28;20033;-75
2023/01/07 08:49:16;;;;;;;46.97;30.52;;;;;;;5.95;100.00;100010.50;5052657;28;20020;-76
2023/01/07 08:51:42;;;;;;;36.30;23.60;;;;;;;5.98;100.00;100005.28;5052786;28;20422;-76
2023/01/07 08:54:27;;;;;;;35.75;25.23;;;;;;;6.07;100.00;100005.94;5052743;28;20047;-76
2023/01/07 08:56:52;;;;;;;56.63;40.17;;;;;;;6.17;100.00;99997.09;5049970;28;20037;-75
2023/01/07 08:59:18;;;;;;;68.82;49.75;;;;;;;6.20;100.00;99989.28;5049789;28;20039;-76
2023/01/07 09:01:43;;;;;;;135.77;76.57;;;;;;;6.28;100.00;99991.66;5050251;28;20041;-76
2023/01/07 09:04:08;;;;;;;57.00;32.05;;;;;;;6.33;100.00;99984.66;5049981;28;20021;-75
2023/01/07 09:06:34;;;;;;;55.65;27.35;;;;;;;6.35;100.00;99988.03;5049666;28;20043;-76
2023/01/07 09:08:59;;;;;;;32.60;18.15;;;;;;;6.41;100.00;99993.94;5049875;28;20047;-76
2023/01/07 09:11:24;;;;;;;30.33;18.52;;;;;;;6.45;100.00;99985.22;5049694;28;20062;-76
2023/01/07 09:13:50;;;;;;;25.10;18.65;;;;;;;6.49;100.00;99999.78;5050039;28;20032;-76
2023/01/07 09:16:15;;;;;;;24.92;18.45;;;;;;;6.43;100.00;99986.13;5049651;28;20041;-76
2023/01/07 09:18:40;;;;;;;20.27;15.95;;;;;;;6.46;100.00;99984.31;5049556;28;20028;-75
2023/01/07 09:21:06;;;;;;;18.33;14.48;;;;;;;6.55;100.00;100001.34;5049746;28;20074;-76
2023/01/07 09:23:31;;;;;;;20.23;16.48;;;;;;;6.54;100.00;99994.50;5032758;28;20203;-76
2023/01/07 09:25:56;;;;;;;30.45;23.25;;;;;;;6.61;100.00;99995.16;5049668;28;20407;-76
2023/01/07 09:28:22;;;;;;;35.33;26.20;;;;;;;6.53;100.00;99981.56;5050696;28;20044;-76
2023/01/07 09:30:47;;;;;;;39.72;28.55;;;;;;;6.63;100.00;99988.22;5052411;28;20024;-76
2023/01/07 09:33:14;;;;;;;32.83;21.30;;;;;;;6.74;100.00;100002.63;5051966;28;20021;-76
2023/01/07 09:35:39;;;;;;;27.40;19.23;;;;;;;6.76;100.00;99994.78;5051726;28;20029;-77
2023/01/07 09:38:04;;;;;;;19.05;15.13;;;;;;;6.77;100.00;99993.06;5051889;28;20025;-76
2023/01/07 09:40:36;;;;;;;19.23;13.93;;;;;;;6.81;100.00;100011.06;5051688;28;20021;-76
2023/01/07 09:43:13;;;;;;;18.60;14.30;;;;;;;6.80;100.00;100003.34;5051683;28;20037;-76
2023/01/07 09:45:49;;;;;;;20.40;15.60;;;;;;;6.77;100.00;99996.50;5051845;28;20021;-76
2023/01/07 09:48:34;;;;;;;16.92;13.60;;;;;;;6.80;100.00;99988.66;5051993;28;20060;-76
2023/01/07 09:51:37;;;;;;;24.05;17.48;;;;;;;6.84;100.00;99992.84;5051632;28;20540;-76
2023/01/07 09:54:05;;;;;;;15.20;12.68;;;;;;;6.86;100.00;99985.03;5029463;28;20029;-76
2023/01/07 09:56:35;;;;;;;19.50;14.05;;;;;;;6.98;100.00;99990.75;5029050;28;20034;-76
2023/01/07 09:59:03;;;;;;;15.85;12.45;;;;;;;6.92;100.00;99979.72;5029415;28;20402;-76
2023/01/07 10:02:15;;;;;;;15.02;11.73;;;;;;;6.93;100.00;99996.94;5029128;28;20041;-75
2023/01/07 10:05:00;;;;;;;16.52;12.57;;;;;;;6.96;100.00;99992.53;4951448;29;20126;-75
2023/01/07 10:07:44;;;;;;;15.73;12.50;;;;;;;7.00;100.00;99990.72;4951147;29;20045;-76
2023/01/07 10:10:48;;;;;;;19.02;13.95;;;;;;;7.05;100.00;99988.00;4951370;29;20032;-76
2023/01/07 10:13:42;;;;;;;30.75;20.23;;;;;;;7.05;100.00;99985.41;4951203;29;20031;-75
2023/01/07 10:16:20;;;;;;;23.90;16.10;;;;;;;7.06;100.00;99990.56;4949546;29;20069;-75
2023/01/07 10:18:49;;;;;;;22.25;15.88;;;;;;;7.10;100.00;99991.31;4950967;29;20472;-76
2023/01/07 10:21:25;;;;;;;25.20;18.67;;;;;;;7.02;100.00;99975.13;4951424;29;20073;-75
2023/01/07 10:24:02;;;;;;;18.45;16.38;;;;;;;7.06;100.00;99979.34;4951221;29;20023;-75
2023/01/07 10:26:41;;;;;;;20.52;15.90;;;;;;;7.03;100.00;99969.91;4950858;29;20213;-76
2023/01/07 10:29:21;;;;;;;29.25;20.13;;;;;;;7.03;100.00;99971.66;4987834;28;20445;-75
2023/01/07 10:31:48;;;;;;;23.60;18.15;;;;;;;7.02;100.00;99959.59;4989586;28;20035;-76
2023/01/07 10:34:21;;;;;;;29.38;22.42;;;;;;;7.03;100.00;99954.38;4989804;28;20046;-76
2023/01/07 10:37:06;;;;;;;26.20;23.10;;;;;;;7.09;100.00;99956.81;4989402;28;20035;-76
2023/01/07 10:39:43;;;;;;;35.95;27.52;;;;;;;7.15;100.00;99958.38;5009093;28;20059;-76
2023/01/07 10:42:24;;;;;;;34.83;24.98;;;;;;;7.19;100.00;99962.56;5055153;28;20060;-76
2023/01/07 10:45:19;;;;;;;26.50;20.13;;;;;;;7.19;100.00;99959.97;5055168;28;20021;-76
2023/01/07 10:48:22;;;;;;;19.92;15.95;;;;;;;7.16;100.00;99944.50;5055193;28;20032;-76
2023/01/07 10:51:12;;;;;;;17.92;15.40;;;;;;;7.22;100.00;99947.81;5054943;28;20052;-76
2023/01/07 10:53:53;;;;;;;23.25;18.13;;;;;;;7.23;100.00;99946.91;5054641;28;20025;-76
2023/01/07 10:56:22;;;;;;;23.85;17.73;;;;;;;7.24;100.00;99935.63;5054754;28;20075;-76
2023/01/07 10:58:50;;;;;;;22.98;16.88;;;;;;;7.25;100.00;99931.31;5054942;28;20025;-76
2023/01/07 11:01:38;;;;;;;22.75;17.42;;;;;;;7.27;100.00;99911.41;5032472;28;20114;-76
2023/01/07 11:04:13;;;;;;;16.58;14.57;;;;;;;7.40;100.00;99904.09;5032467;28;20393;-75
2023/01/07 11:07:14;;;;;;;22.95;16.30;;;;;;;7.37;100.00;99905.03;5015708;28;20222;-76
2023/01/07 11:09:42;;;;;;;22.38;16.23;;;;;;;7.45;100.00;99904.81;4992638;28;20501;-76
2023/01/07 11:12:57;;;;;;;21.27;16.40;;;;;;;7.63;100.00;99913.81;4993054;28;20481;-76
2023/01/07 11:15:39;;;;;;;19.40;16.30;;;;;;;7.74;100.00;99916.91;4897038;29;20056;-76
2023/01/07 11:18:12;;;;;;;42.47;24.15;;;;;;;7.82;100.00;99908.88;4896902;29;20051;-75
2023/01/07 11:20:42;;;;;;;30.73;18.52;;;;;;;7.93;100.00;99917.19;4896381;29;20119;-75
2023/01/07 11:23:26;;;;;;;30.80;19.60;;;;;;;8.00;100.00;99913.50;4896870;29;20037;-76
2023/01/07 11:25:54;;;;;;;46.10;26.77;;;;;;;7.98;100.00;99897.97;4896741;29;20033;-76